Terminal Aerodrome Forecast
Issued by NWS Cleveland, OH

Home | Current Version | Previous Version | Graphics & Text | Print | Product List | Glossary On
Versions: 1 2 3 4 5 6 7 8 9 10 11 12 13 14 15 16 17 18 19 20
000
FTUS41 KCLE 011727
TAFTOL
TAF
KTOL 011727Z 0118/0218 23008KT P6SM BKN045
     FM020000 23003KT P6SM SKC
     FM020700 23003KT 4SM BR SKC
      TEMPO 0210/0213 2SM BR
     FM021500 25008KT P6SM SCT040=

USA.gov is the U.S. government's official web portal to all federal, state and local government web resources and services.